Time;durP1;ratioP1;P1;durP2;ratioP2;P2;SDS_P1;SDS_P2;PMS_P1;PMS_P2;Temp;Humidity;BMP_temperature;BMP_pressure;BME280_temperature;BME280_humidity;BME280_pressure;Samples;Min_cycle;Max_cycle;Signal;HPM_P1;HPM_P2
2024/03/17 00:01:36;;;;;;;26.77;10.67;;;3.80;90.10;;;;;;5056213;28;20195;-86
2024/03/17 00:04:02;;;;;;;22.53;8.93;;;3.80;90.50;;;;;;5056429;28;20177;-87
2024/03/17 00:06:28;;;;;;;21.73;12.00;;;3.90;90.60;;;;;;5038257;28;20719;-87
2024/03/17 00:08:54;;;;;;;24.93;8.53;;;3.90;90.50;;;;;;5055584;28;20234;-86
2024/03/17 00:11:20;;;;;;;28.47;9.57;;;3.90;90.30;;;;;;5037439;28;20224;-86
2024/03/17 00:13:46;;;;;;;18.33;9.43;;;3.80;90.40;;;;;;5056027;28;20164;-86
2024/03/17 00:16:13;;;;;;;24.90;10.13;;;3.80;90.40;;;;;;5055949;28;20175;-86
2024/03/17 00:18:38;;;;;;;27.17;10.57;;;3.80;90.60;;;;;;5055936;28;20174;-86
2024/03/17 00:21:04;;;;;;;34.90;8.80;;;3.80;90.80;;;;;;5055754;28;20179;-85
2024/03/17 00:23:30;;;;;;;24.53;8.50;;;3.90;91.00;;;;;;5055791;28;20206;-87
2024/03/17 00:25:55;;;;;;;26.77;8.60;;;3.90;91.10;;;;;;5056056;28;20182;-87
2024/03/17 00:28:21;;;;;;;24.77;9.70;;;4.00;91.10;;;;;;5055565;28;20248;-87
2024/03/17 00:30:46;;;;;;;27.43;8.60;;;4.00;91.20;;;;;;5055637;28;20253;-87
2024/03/17 00:33:12;;;;;;;19.43;8.00;;;3.90;91.30;;;;;;5037675;28;20695;-87
2024/03/17 00:35:37;;;;;;;26.67;10.07;;;4.00;91.40;;;;;;5038041;28;20199;-87
2024/03/17 00:38:10;;;;;;;31.97;14.97;;;4.00;91.40;;;;;;5055836;28;20170;-86
2024/03/17 00:40:42;;;;;;;28.37;14.87;;;4.00;91.30;;;;;;5055679;28;20165;-86
2024/03/17 00:43:07;;;;;;;42.03;16.10;;;4.10;91.20;;;;;;5055478;28;20187;-86
2024/03/17 00:45:33;;;;;;;32.97;14.10;;;4.00;91.10;;;;;;5037393;28;20186;-86
2024/03/17 00:47:59;;;;;;;27.73;14.37;;;4.00;91.00;;;;;;5055184;28;20175;-86
2024/03/17 00:50:24;;;;;;;29.63;14.97;;;4.00;90.90;;;;;;5037449;28;20214;-86
2024/03/17 00:52:50;;;;;;;27.77;14.47;;;3.90;90.70;;;;;;5055260;28;20194;-86
2024/03/17 00:55:15;;;;;;;20.40;14.57;;;3.80;90.70;;;;;;5037481;28;20170;-86
2024/03/17 00:57:41;;;;;;;28.17;14.77;;;3.70;90.70;;;;;;5055552;28;20172;-86
2024/03/17 01:00:11;;;;;;;27.80;15.83;;;3.70;90.80;;;;;;5037424;28;20183;-86
2024/03/17 01:02:37;;;;;;;26.20;14.70;;;3.70;90.90;;;;;;5054897;28;20214;-87
2024/03/17 01:05:05;;;;;;;23.13;14.30;;;3.70;90.90;;;;;;5054856;28;20650;-86
2024/03/17 01:07:31;;;;;;;29.67;13.60;;;3.60;90.90;;;;;;5055181;28;20543;-86
2024/03/17 01:09:56;;;;;;;42.50;18.17;;;3.70;90.80;;;;;;5054765;28;20196;-87
2024/03/17 01:12:22;;;;;;;33.77;15.97;;;3.60;90.70;;;;;;5054793;28;20218;-87
2024/03/17 01:14:47;;;;;;;25.80;15.90;;;3.60;90.80;;;;;;5056034;28;20194;-86
2024/03/17 01:17:13;;;;;;;31.83;17.73;;;3.60;90.80;;;;;;5054310;28;20179;-87
2024/03/17 01:19:38;;;;;;;23.13;16.30;;;3.60;90.90;;;;;;5036462;28;20205;-86
2024/03/17 01:22:04;;;;;;;27.97;17.27;;;3.60;90.90;;;;;;5054145;28;20207;-86
2024/03/17 01:24:33;;;;;;;32.37;17.93;;;3.60;90.90;;;;;;5054372;28;20183;-87
2024/03/17 01:26:59;;;;;;;35.87;17.17;;;3.70;90.90;;;;;;5054310;28;20175;-86
2024/03/17 01:29:25;;;;;;;35.37;16.20;;;3.60;90.70;;;;;;5054292;28;20610;-86
2024/03/17 01:31:51;;;;;;;37.40;17.23;;;3.50;90.90;;;;;;5054082;28;20198;-87
2024/03/17 01:34:18;;;;;;;28.23;16.90;;;3.50;91.10;;;;;;5054094;28;20209;-86
2024/03/17 01:36:44;;;;;;;23.57;15.30;;;3.50;91.20;;;;;;5036146;28;20644;-86
2024/03/17 01:39:09;;;;;;;25.77;15.37;;;3.60;91.30;;;;;;5036126;28;20269;-87
2024/03/17 01:41:35;;;;;;;33.17;15.77;;;3.60;91.40;;;;;;5036096;28;20255;-86
2024/03/17 01:44:00;;;;;;;25.07;16.73;;;3.60;91.40;;;;;;5053936;28;20225;-86
2024/03/17 01:46:26;;;;;;;23.97;15.20;;;3.60;91.50;;;;;;5053908;28;20663;-86
2024/03/17 01:48:51;;;;;;;24.60;15.70;;;3.60;91.50;;;;;;5053649;28;20190;-86
2024/03/17 01:51:17;;;;;;;34.30;17.90;;;3.70;91.40;;;;;;5053657;28;20195;-87
2024/03/17 01:53:44;;;;;;;32.47;17.37;;;3.70;91.40;;;;;;5053742;28;20170;-87
2024/03/17 01:56:15;;;;;;;23.67;16.13;;;3.60;91.30;;;;;;5053934;28;20544;-86
2024/03/17 01:58:44;;;;;;;23.33;16.70;;;3.60;91.50;;;;;;5053683;28;20522;-87
2024/03/17 02:01:10;;;;;;;24.03;9.07;;;3.60;91.50;;;;;;5035774;28;20658;-86
2024/03/17 02:03:36;;;;;;;29.53;10.90;;;3.70;91.50;;;;;;5053485;28;20182;-85
2024/03/17 02:06:01;;;;;;;24.50;9.73;;;3.60;91.40;;;;;;5053701;28;20175;-86
2024/03/17 02:08:27;;;;;;;19.80;9.60;;;3.60;91.40;;;;;;5035536;28;20202;-86
2024/03/17 02:10:54;;;;;;;28.67;10.40;;;3.60;91.50;;;;;;5053392;28;20160;-87
2024/03/17 02:13:21;;;;;;;24.50;11.40;;;3.50;91.40;;;;;;5053661;28;20183;-87
2024/03/17 02:15:47;;;;;;;34.23;10.40;;;3.40;91.40;;;;;;5053661;28;20168;-86
2024/03/17 02:18:13;;;;;;;25.23;10.00;;;3.40;91.40;;;;;;5035511;28;20172;-86
2024/03/17 02:21:22;;;;;;;24.17;9.30;;;3.40;91.70;;;;;;5053346;28;20175;-86
2024/03/17 02:23:28;;;;;;;34.60;9.93;;;3.50;91.70;;;;;;5042671;28;20198;-86
2024/03/17 02:25:54;;;;;;;32.73;10.27;;;3.50;91.80;;;;;;5053470;28;20175;-86
2024/03/17 02:28:19;;;;;;;18.17;10.03;;;3.60;91.70;;;;;;5035956;28;20708;-88
2024/03/17 02:30:45;;;;;;;22.90;10.43;;;3.60;91.70;;;;;;5053734;28;20302;-84
2024/03/17 02:33:10;;;;;;;26.60;10.67;;;3.70;91.60;;;;;;5052692;28;20240;-87
2024/03/17 02:35:36;;;;;;;28.77;12.40;;;3.70;91.30;;;;;;5035592;28;20206;-87
2024/03/17 02:38:02;;;;;;;23.87;11.63;;;3.50;91.20;;;;;;5053781;28;20273;-86
2024/03/17 02:40:28;;;;;;;18.47;11.10;;;3.50;91.20;;;;;;5035750;28;20185;-86
2024/03/17 02:42:55;;;;;;;21.30;10.97;;;3.40;91.20;;;;;;5035522;28;20614;-87
2024/03/17 02:45:21;;;;;;;22.30;11.63;;;3.40;91.20;;;;;;5053464;28;20550;-87
2024/03/17 02:47:46;;;;;;;17.77;11.50;;;3.30;91.30;;;;;;5053709;28;20179;-87
2024/03/17 02:50:12;;;;;;;18.00;12.57;;;3.50;91.40;;;;;;5035423;28;20285;-86
2024/03/17 02:52:37;;;;;;;26.53;14.00;;;3.60;91.30;;;;;;5035559;28;20202;-86
2024/03/17 02:55:03;;;;;;;16.40;12.73;;;3.60;91.10;;;;;;5053293;28;20599;-87
2024/03/17 02:57:30;;;;;;;21.27;13.83;;;3.60;90.80;;;;;;5053485;28;20627;-87
2024/03/17 02:59:56;;;;;;;19.57;13.60;;;3.50;90.30;;;;;;5035746;28;20557;-87
2024/03/17 03:02:22;;;;;;;21.17;14.80;;;3.50;90.10;;;;;;5035379;28;20214;-87
2024/03/17 03:04:47;;;;;;;30.17;15.80;;;3.50;89.80;;;;;;5053509;28;20183;-86
2024/03/17 03:07:13;;;;;;;20.50;16.00;;;3.50;89.40;;;;;;5053275;28;20172;-86
2024/03/17 03:09:39;;;;;;;24.80;15.53;;;3.50;89.30;;;;;;5053095;28;20701;-87
2024/03/17 03:12:04;;;;;;;30.80;27.50;;;3.50;89.10;;;;;;5052961;28;20242;-87
2024/03/17 03:14:31;;;;;;;33.47;27.67;;;3.60;89.00;;;;;;5053065;28;20183;-88
2024/03/17 03:16:58;;;;;;;35.33;27.07;;;3.60;89.10;;;;;;5035267;28;20171;-87
2024/03/17 03:19:24;;;;;;;32.97;26.93;;;3.60;89.30;;;;;;5053092;28;20278;-87
2024/03/17 03:21:49;;;;;;;31.10;25.63;;;3.70;89.40;;;;;;5053006;28;20195;-86
2024/03/17 03:24:15;;;;;;;27.73;25.00;;;3.70;89.40;;;;;;5035489;28;20746;-87
2024/03/17 03:26:41;;;;;;;31.57;22.90;;;3.60;90.00;;;;;;5035370;28;20183;-86
2024/03/17 03:29:07;;;;;;;29.13;22.93;;;3.70;90.10;;;;;;5053270;28;20229;-86
2024/03/17 03:31:33;;;;;;;27.30;23.87;;;3.70;90.20;;;;;;5035276;28;20199;-87
2024/03/17 03:34:02;;;;;;;25.10;22.53;;;3.70;90.20;;;;;;5053728;28;20713;-87
2024/03/17 03:36:29;;;;;;;26.97;23.10;;;3.70;90.10;;;;;;5035437;28;20183;-87
2024/03/17 03:38:54;;;;;;;29.73;23.83;;;3.70;90.20;;;;;;5035357;28;20179;-86
2024/03/17 03:41:23;;;;;;;32.73;22.43;;;3.80;90.50;;;;;;5034922;28;20207;-86
2024/03/17 03:43:49;;;;;;;24.37;21.20;;;3.80;90.50;;;;;;5035613;28;20538;-87
2024/03/17 03:46:15;;;;;;;29.70;21.83;;;3.80;90.70;;;;;;5056838;28;20198;-87
2024/03/17 03:48:40;;;;;;;25.10;20.90;;;3.80;90.70;;;;;;5056923;28;20590;-86
2024/03/17 03:51:07;;;;;;;31.17;20.33;;;3.80;91.00;;;;;;5056496;28;20186;-87
2024/03/17 03:53:34;;;;;;;30.93;19.70;;;3.80;91.20;;;;;;5056382;28;20175;-86
2024/03/17 03:56:01;;;;;;;26.43;19.17;;;3.80;91.50;;;;;;5056437;28;20182;-88
2024/03/17 03:58:27;;;;;;;26.30;19.23;;;3.90;91.60;;;;;;5056253;28;20659;-87
2024/03/17 04:00:55;;;;;;;25.90;18.53;;;3.90;91.80;;;;;;5038495;28;20267;-88
2024/03/17 04:03:20;;;;;;;35.27;18.30;;;3.90;91.90;;;;;;5038405;28;20190;-86
2024/03/17 04:05:46;;;;;;;30.40;18.70;;;3.90;92.10;;;;;;5056277;28;20179;-86
2024/03/17 04:08:11;;;;;;;37.10;18.63;;;3.90;92.30;;;;;;5056242;28;20171;-86
2024/03/17 04:10:37;;;;;;;33.73;17.67;;;3.80;92.50;;;;;;5038335;28;20172;-86
2024/03/17 04:13:03;;;;;;;33.83;17.10;;;3.90;92.60;;;;;;5056011;28;20234;-86
2024/03/17 04:15:28;;;;;;;27.03;17.33;;;4.00;92.70;;;;;;5038078;28;20179;-86
2024/03/17 04:17:54;;;;;;;37.53;18.90;;;3.90;92.70;;;;;;5055951;28;20222;-86
2024/03/17 04:20:20;;;;;;;32.93;20.07;;;3.90;92.60;;;;;;5056127;28;20182;-87
2024/03/17 04:22:48;;;;;;;26.97;19.17;;;3.80;92.60;;;;;;5055791;28;20324;-87
2024/03/17 04:25:14;;;;;;;22.33;12.97;;;3.70;92.60;;;;;;5037958;28;20188;-88
2024/03/17 04:27:40;;;;;;;23.33;11.70;;;3.70;92.60;;;;;;5038048;28;20182;-87
2024/03/17 04:30:06;;;;;;;30.33;12.23;;;3.70;92.60;;;;;;5055701;28;20209;-86
2024/03/17 04:32:33;;;;;;;24.37;12.40;;;3.70;92.50;;;;;;5037815;28;20195;-88
2024/03/17 04:34:59;;;;;;;29.17;11.20;;;3.50;92.60;;;;;;5055594;28;20168;-86
2024/03/17 04:37:24;;;;;;;18.37;11.30;;;3.50;92.80;;;;;;5037845;28;20305;-87
2024/03/17 04:39:51;;;;;;;27.23;12.30;;;3.60;92.80;;;;;;5055807;28;20262;-88
2024/03/17 04:42:17;;;;;;;17.93;10.87;;;3.50;92.60;;;;;;5055533;28;20261;-87
2024/03/17 04:44:44;;;;;;;21.20;10.87;;;3.30;92.70;;;;;;5055593;28;20649;-86
2024/03/17 04:47:11;;;;;;;17.80;10.90;;;3.40;92.90;;;;;;5055509;28;20187;-86
2024/03/17 04:49:40;;;;;;;22.10;12.00;;;3.50;92.80;;;;;;5055670;28;20202;-87
2024/03/17 04:52:07;;;;;;;24.13;12.07;;;3.50;92.60;;;;;;5055244;28;20195;-87
2024/03/17 04:54:33;;;;;;;20.00;11.57;;;3.10;92.40;;;;;;5055315;28;20634;-86
2024/03/17 04:56:59;;;;;;;21.30;12.33;;;2.80;92.40;;;;;;5054723;28;20705;-87
2024/03/17 04:59:24;;;;;;;29.97;12.80;;;2.80;92.70;;;;;;5055259;28;20255;-89
2024/03/17 05:01:51;;;;;;;28.67;13.43;;;2.80;92.90;;;;;;5055167;28;20568;-87
2024/03/17 05:04:17;;;;;;;24.57;11.40;;;2.70;93.20;;;;;;5055290;28;20175;-86
2024/03/17 05:06:46;;;;;;;21.80;11.30;;;2.70;93.30;;;;;;5055202;28;20173;-87
2024/03/17 05:09:13;;;;;;;30.17;11.60;;;2.80;93.40;;;;;;5037069;28;20201;-87
2024/03/17 05:11:39;;;;;;;20.57;12.40;;;2.80;93.50;;;;;;5054913;28;20201;-87
2024/03/17 05:14:05;;;;;;;26.23;11.50;;;2.80;93.40;;;;;;5037139;28;20176;-86
2024/03/17 05:16:30;;;;;;;19.33;11.07;;;2.90;93.50;;;;;;5037353;28;20692;-87
2024/03/17 05:18:56;;;;;;;19.33;11.90;;;2.90;93.40;;;;;;5036942;28;20236;-86
2024/03/17 05:21:23;;;;;;;21.47;11.80;;;2.90;93.30;;;;;;5055374;28;20202;-86
2024/03/17 05:23:49;;;;;;;27.77;12.03;;;3.00;93.30;;;;;;5036963;28;20186;-86
2024/03/17 05:26:14;;;;;;;24.63;12.77;;;3.00;93.20;;;;;;5054670;28;20547;-86
2024/03/17 05:28:40;;;;;;;21.30;11.37;;;2.80;93.10;;;;;;5036825;28;20709;-87
2024/03/17 05:31:05;;;;;;;27.63;15.20;;;2.90;93.30;;;;;;5054998;28;20649;-87
2024/03/17 05:33:31;;;;;;;30.23;14.07;;;2.90;93.20;;;;;;5054850;28;20167;-86
2024/03/17 05:36:02;;;;;;;23.83;13.20;;;3.00;93.20;;;;;;5054604;28;20650;-86
2024/03/17 05:38:29;;;;;;;22.63;20.33;;;3.10;93.20;;;;;;5036644;28;20310;-87
2024/03/17 05:41:03;;;;;;;23.63;20.80;;;3.10;93.00;;;;;;5054402;28;20257;-86
2024/03/17 05:43:29;;;;;;;26.77;19.90;;;3.00;92.70;;;;;;5036626;28;20180;-86
2024/03/17 05:46:03;;;;;;;24.60;19.80;;;2.90;92.70;;;;;;5036522;28;20180;-87
2024/03/17 05:48:29;;;;;;;23.20;18.80;;;3.00;92.80;;;;;;5036375;28;20200;-88
2024/03/17 05:50:55;;;;;;;29.03;14.07;;;3.00;92.70;;;;;;5036480;28;20171;-87
2024/03/17 05:53:26;;;;;;;24.13;20.80;;;3.00;92.50;;;;;;5036556;28;20190;-86
2024/03/17 05:55:52;;;;;;;27.73;22.23;;;3.00;92.40;;;;;;5036181;28;20174;-87
2024/03/17 05:58:17;;;;;;;31.23;22.87;;;3.20;92.10;;;;;;5036305;28;20277;-87
2024/03/17 06:00:44;;;;;;;24.60;20.93;;;3.10;91.70;;;;;;5054339;28;20176;-86
2024/03/17 06:03:09;;;;;;;24.97;22.43;;;3.20;91.70;;;;;;5036451;28;20241;-87
2024/03/17 06:05:42;;;;;;;29.77;23.53;;;3.30;91.50;;;;;;5054069;28;20176;-86
2024/03/17 06:08:08;;;;;;;27.40;23.50;;;3.30;91.20;;;;;;5054068;28;20250;-87
2024/03/17 06:10:36;;;;;;;26.40;23.63;;;3.30;91.00;;;;;;5036098;28;20182;-86
2024/03/17 06:13:03;;;;;;;32.90;23.40;;;3.30;91.00;;;;;;5053922;28;20613;-86
2024/03/17 06:15:30;;;;;;;27.90;24.83;;;3.30;90.90;;;;;;5036092;28;20183;-86
2024/03/17 06:17:56;;;;;;;29.60;23.27;;;3.30;90.90;;;;;;5053973;28;20179;-87
2024/03/17 06:20:26;;;;;;;26.93;23.73;;;3.30;90.70;;;;;;5036712;28;20524;-87
2024/03/17 06:22:53;;;;;;;25.43;22.13;;;3.30;90.60;;;;;;5036146;28;20581;-87
2024/03/17 06:25:18;;;;;;;25.97;23.33;;;3.20;90.60;;;;;;5036105;28;20257;-86
2024/03/17 06:27:44;;;;;;;28.93;23.00;;;3.20;90.50;;;;;;5054122;28;20183;-87
2024/03/17 06:30:15;;;;;;;26.97;22.87;;;3.20;90.80;;;;;;5035962;28;20209;-87
2024/03/17 06:32:41;;;;;;;27.77;22.80;;;3.20;91.00;;;;;;5035759;28;20285;-87
2024/03/17 06:35:08;;;;;;;24.07;21.57;;;3.30;91.10;;;;;;5035837;28;20171;-86
2024/03/17 06:37:34;;;;;;;25.97;21.53;;;3.30;91.20;;;;;;5053864;28;20230;-86
2024/03/17 06:40:01;;;;;;;25.23;21.00;;;3.40;91.10;;;;;;5053789;28;20171;-86
2024/03/17 06:42:26;;;;;;;23.33;21.20;;;3.40;91.10;;;;;;5035754;28;20206;-87
2024/03/17 06:44:52;;;;;;;23.67;21.43;;;3.40;91.00;;;;;;5053785;28;20611;-86
2024/03/17 06:47:17;;;;;;;25.30;22.73;;;3.50;91.10;;;;;;5036009;28;20221;-87
2024/03/17 06:49:45;;;;;;;25.37;21.57;;;3.50;91.10;;;;;;5053651;28;20203;-87
2024/03/17 06:52:10;;;;;;;26.80;21.20;;;3.60;91.30;;;;;;5053509;28;20202;-87
2024/03/17 06:54:36;;;;;;;23.27;20.77;;;3.70;91.40;;;;;;5053618;28;20176;-87
2024/03/17 06:57:01;;;;;;;17.57;15.60;;;3.60;91.40;;;;;;5053816;28;20259;-87
2024/03/17 06:59:27;;;;;;;25.47;15.93;;;3.60;91.60;;;;;;5053426;28;20655;-86
2024/03/17 07:01:53;;;;;;;25.60;15.57;;;3.80;91.90;;;;;;5053949;28;20542;-87
2024/03/17 07:04:18;;;;;;;21.47;16.07;;;4.00;92.00;;;;;;5035773;28;20175;-86
2024/03/17 07:06:44;;;;;;;19.23;15.37;;;3.90;91.90;;;;;;5053573;28;20193;-87
2024/03/17 07:09:10;;;;;;;21.27;15.17;;;3.80;92.00;;;;;;5035527;28;20207;-88
2024/03/17 07:11:36;;;;;;;19.70;15.20;;;3.70;92.00;;;;;;5053622;28;20195;-88
2024/03/17 07:14:01;;;;;;;21.47;15.07;;;3.70;92.20;;;;;;5053907;28;20520;-86
2024/03/17 07:16:27;;;;;;;32.60;14.43;;;3.70;92.70;;;;;;5036873;28;20218;-86
2024/03/17 07:18:52;;;;;;;25.63;14.60;;;3.70;93.10;;;;;;5036410;28;20649;-86
2024/03/17 07:21:18;;;;;;;31.23;13.57;;;3.70;93.40;;;;;;5039567;28;20624;-86
2024/03/17 07:23:44;;;;;;;27.03;13.60;;;3.70;93.60;;;;;;5056980;28;20255;-86
2024/03/17 07:26:10;;;;;;;26.33;13.50;;;3.70;93.70;;;;;;5056998;28;20234;-85
2024/03/17 07:28:40;;;;;;;31.00;14.40;;;3.80;93.90;;;;;;5039073;28;20207;-87
2024/03/17 07:31:08;;;;;;;32.80;13.73;;;3.80;94.00;;;;;;5057016;28;20179;-86
2024/03/17 07:33:33;;;;;;;22.60;13.77;;;3.80;94.10;;;;;;5039108;28;20177;-86
2024/03/17 07:36:02;;;;;;;29.50;15.23;;;4.00;94.20;;;;;;5039122;28;20178;-88
2024/03/17 07:38:29;;;;;;;29.93;14.93;;;4.00;94.40;;;;;;5056926;28;20164;-86
2024/03/17 07:40:57;;;;;;;34.97;14.17;;;4.00;94.40;;;;;;5056802;28;20166;-86
2024/03/17 07:43:23;;;;;;;39.53;15.87;;;4.10;94.40;;;;;;5038893;28;20174;-86
2024/03/17 07:45:57;;;;;;;32.63;14.07;;;4.10;94.50;;;;;;5056630;28;20261;-86
2024/03/17 07:48:23;;;;;;;19.50;10.83;;;4.30;94.50;;;;;;5038849;28;20202;-86
2024/03/17 07:51:06;;;;;;;25.37;10.37;;;4.20;94.50;;;;;;5039974;28;20666;-86
2024/03/17 07:53:35;;;;;;;21.20;10.80;;;4.10;94.50;;;;;;5056809;28;20159;-88
2024/03/17 07:56:06;;;;;;;27.33;11.07;;;4.20;94.50;;;;;;5038374;28;20175;-86
2024/03/17 07:58:35;;;;;;;23.03;10.20;;;4.20;94.40;;;;;;5038578;28;20225;-87
2024/03/17 08:01:02;;;;;;;22.37;9.93;;;4.30;94.30;;;;;;5056277;28;20194;-87
2024/03/17 08:03:29;;;;;;;16.07;9.90;;;4.50;94.40;;;;;;5056518;28;20616;-87
2024/03/17 08:05:54;;;;;;;20.20;9.93;;;4.60;94.10;;;;;;5056483;28;20195;-86
2024/03/17 08:08:21;;;;;;;21.87;10.23;;;4.80;93.60;;;;;;5038329;28;20647;-87
2024/03/17 08:10:48;;;;;;;16.50;9.67;;;5.00;93.10;;;;;;5038214;28;20176;-86
2024/03/17 08:13:15;;;;;;;24.40;10.93;;;5.20;92.40;;;;;;5056216;28;20214;-87
2024/03/17 08:15:42;;;;;;;25.43;10.93;;;5.30;91.60;;;;;;5056341;28;20176;-86
2024/03/17 08:18:08;;;;;;;25.80;11.60;;;5.40;90.40;;;;;;5056601;28;20171;-87
2024/03/17 08:20:43;;;;;;;19.37;13.40;;;5.40;88.30;;;;;;5037882;28;20176;-86
2024/03/17 08:23:10;;;;;;;23.40;16.93;;;5.50;86.90;;;;;;5038114;28;20674;-87
2024/03/17 08:25:36;;;;;;;31.03;22.40;;;5.70;86.60;;;;;;5056323;28;20744;-87
2024/03/17 08:28:02;;;;;;;25.67;23.23;;;5.90;85.70;;;;;;5038273;28;20258;-87
2024/03/17 08:30:28;;;;;;;26.23;23.63;;;5.90;84.80;;;;;;5055104;28;20196;-86
2024/03/17 08:32:54;;;;;;;28.10;24.97;;;5.90;84.40;;;;;;5037702;28;20207;-87
2024/03/17 08:35:19;;;;;;;34.73;25.10;;;6.00;84.20;;;;;;5038253;28;20179;-87
2024/03/17 08:37:45;;;;;;;29.03;25.70;;;6.20;83.00;;;;;;5055823;28;20168;-87
2024/03/17 08:40:11;;;;;;;39.17;29.07;;;6.40;81.70;;;;;;5037688;28;20173;-87
2024/03/17 08:42:37;;;;;;;29.23;24.07;;;6.30;79.30;;;;;;5055417;28;20569;-87
2024/03/17 08:45:03;;;;;;;31.57;24.97;;;6.40;79.10;;;;;;5037558;28;20275;-87
2024/03/17 08:47:29;;;;;;;27.97;24.77;;;6.50;78.20;;;;;;5055353;28;20186;-86
2024/03/17 08:49:55;;;;;;;28.90;25.87;;;6.50;77.20;;;;;;5055574;28;20279;-87
2024/03/17 08:52:21;;;;;;;28.23;25.40;;;6.50;76.00;;;;;;5037680;28;20579;-87
2024/03/17 08:54:47;;;;;;;33.40;29.93;;;6.60;75.20;;;;;;5037508;28;20198;-86
2024/03/17 08:57:13;;;;;;;31.00;28.03;;;6.60;73.30;;;;;;5055652;28;20168;-87
2024/03/17 08:59:39;;;;;;;31.40;28.57;;;6.70;73.60;;;;;;5037428;28;20597;-87
2024/03/17 09:02:06;;;;;;;32.10;29.00;;;6.70;73.90;;;;;;5037169;28;20279;-87
2024/03/17 09:04:31;;;;;;;32.17;29.07;;;6.80;73.20;;;;;;5055118;28;20234;-87
2024/03/17 09:06:57;;;;;;;31.90;28.93;;;6.80;73.40;;;;;;5054982;28;20647;-87
2024/03/17 09:09:23;;;;;;;30.23;27.30;;;6.80;73.70;;;;;;5055170;28;20668;-87
2024/03/17 09:11:48;;;;;;;32.43;29.23;;;6.80;75.30;;;;;;5054998;28;20290;-87
2024/03/17 09:14:14;;;;;;;33.67;30.07;;;6.70;75.90;;;;;;5055267;28;20306;-89
2024/03/17 09:16:39;;;;;;;34.57;31.20;;;6.60;76.00;;;;;;5036837;28;20180;-86
2024/03/17 09:19:05;;;;;;;35.73;31.97;;;6.90;77.00;;;;;;5054777;28;20184;-86
2024/03/17 09:21:31;;;;;;;36.00;32.93;;;7.00;75.90;;;;;;5054367;28;20206;-87
2024/03/17 09:23:56;;;;;;;38.63;34.77;;;7.30;74.40;;;;;;5037522;28;20187;-86
2024/03/17 09:26:22;;;;;;;34.93;31.63;;;7.30;71.00;;;;;;5036828;28;20179;-86
2024/03/17 09:28:47;;;;;;;33.57;30.57;;;7.30;70.40;;;;;;5054607;28;20584;-86
2024/03/17 09:31:13;;;;;;;34.77;31.33;;;7.30;71.80;;;;;;5054271;28;20660;-85
2024/03/17 09:33:39;;;;;;;34.23;31.43;;;7.10;71.90;;;;;;5036513;28;20176;-88
2024/03/17 09:36:06;;;;;;;36.10;33.07;;;7.20;70.80;;;;;;5054521;28;20190;-86
2024/03/17 09:38:33;;;;;;;37.53;34.20;;;7.30;67.70;;;;;;5054692;28;20636;-86
2024/03/17 09:41:03;;;;;;;35.90;32.93;;;7.50;66.70;;;;;;5054394;28;20660;-87
2024/03/17 09:43:32;;;;;;;28.27;23.20;;;7.60;66.50;;;;;;5036364;28;20172;-86
2024/03/17 09:45:57;;;;;;;33.33;22.20;;;7.70;66.70;;;;;;5054766;28;20172;-87
2024/03/17 09:48:28;;;;;;;24.27;21.87;;;7.80;66.10;;;;;;5036602;28;20658;-86
2024/03/17 09:50:56;;;;;;;24.10;21.73;;;8.00;67.20;;;;;;5054451;28;20163;-89
2024/03/17 09:53:25;;;;;;;27.77;22.33;;;8.00;66.20;;;;;;5054963;28;20175;-86
2024/03/17 09:56:12;;;;;;;27.83;22.47;;;8.10;66.10;;;;;;5036761;28;20172;-86
2024/03/17 09:58:38;;;;;;;27.77;21.90;;;8.10;65.50;;;;;;5036315;28;20275;-86
2024/03/17 10:01:04;;;;;;;23.10;20.80;;;8.10;66.10;;;;;;5054493;28;20203;-86
2024/03/17 10:03:58;;;;;;;24.17;21.80;;;8.40;67.10;;;;;;5054717;28;20175;-85
2024/03/17 10:06:27;;;;;;;23.60;21.30;;;8.30;66.10;;;;;;5054745;28;20160;-87
2024/03/17 10:08:54;;;;;;;25.67;23.17;;;8.40;65.90;;;;;;5054108;28;20231;-86
2024/03/17 10:11:35;;;;;;;23.43;20.73;;;8.30;66.80;;;;;;5036246;28;20203;-86
2024/03/17 10:14:03;;;;;;;28.23;21.90;;;8.40;64.90;;;;;;5036171;28;20168;-88
2024/03/17 10:16:29;;;;;;;24.47;21.83;;;8.50;65.20;;;;;;5036250;28;20186;-86
2024/03/17 10:19:23;;;;;;;25.43;21.40;;;8.70;63.90;;;;;;5054187;28;20172;-87
2024/03/17 10:21:49;;;;;;;32.40;23.97;;;8.90;67.70;;;;;;5054565;28;20196;-86
2024/03/17 10:24:25;;;;;;;24.23;21.77;;;9.10;63.90;;;;;;5054081;28;20591;-88
2024/03/17 10:26:59;;;;;;;27.33;22.67;;;9.10;61.40;;;;;;5054119;28;20174;-86
2024/03/17 10:29:27;;;;;;;24.43;22.03;;;9.10;61.10;;;;;;5054355;28;20228;-86
2024/03/17 10:31:54;;;;;;;24.70;22.17;;;9.20;62.60;;;;;;5036101;28;20199;-86
2024/03/17 10:34:20;;;;;;;27.10;24.60;;;9.30;61.80;;;;;;5053864;28;20255;-87
2024/03/17 10:36:48;;;;;;;27.10;24.03;;;9.30;60.40;;;;;;5035873;28;20211;-86
2024/03/17 10:39:28;;;;;;;25.50;23.00;;;9.10;59.70;;;;;;5035797;28;20279;-87
2024/03/17 10:42:06;;;;;;;26.10;23.30;;;9.00;59.80;;;;;;5053442;28;20203;-86
2024/03/17 10:44:34;;;;;;;25.90;22.93;;;9.00;59.20;;;;;;5054203;28;20160;-87
2024/03/17 10:47:02;;;;;;;24.80;22.30;;;9.00;58.80;;;;;;5053504;28;20552;-86
2024/03/17 10:49:33;;;;;;;27.00;22.60;;;8.90;59.60;;;;;;5036715;28;20200;-85
2024/03/17 10:52:06;;;;;;;25.73;23.00;;;9.10;58.20;;;;;;5052887;28;20203;-86
2024/03/17 10:54:33;;;;;;;27.80;22.37;;;9.20;59.20;;;;;;5036838;28;20606;-86
2024/03/17 10:57:22;;;;;;;24.60;22.23;;;9.30;60.30;;;;;;5057071;28;20294;-87
2024/03/17 10:59:49;;;;;;;25.23;22.97;;;9.40;60.30;;;;;;5057027;28;20624;-86
2024/03/17 11:02:23;;;;;;;24.23;22.00;;;9.40;58.80;;;;;;5056834;28;20271;-85
2024/03/17 11:04:52;;;;;;;26.07;23.37;;;9.50;56.70;;;;;;5057133;28;20270;-86
2024/03/17 11:07:19;;;;;;;26.50;22.10;;;9.50;58.20;;;;;;5057122;28;20233;-88
2024/03/17 11:09:47;;;;;;;26.73;24.20;;;9.70;57.80;;;;;;5038927;28;20215;-88
2024/03/17 11:12:44;;;;;;;25.97;23.40;;;9.80;54.80;;;;;;5056679;28;20208;-88
2024/03/17 11:15:18;;;;;;;28.07;23.73;;;9.80;56.50;;;;;;5057117;28;20176;-89
2024/03/17 11:17:48;;;;;;;25.63;23.27;;;10.00;59.10;;;;;;5057012;28;20167;-88
2024/03/17 11:20:16;;;;;;;24.93;22.53;;;10.00;58.80;;;;;;5056892;28;20176;-91
2024/03/17 11:22:43;;;;;;;29.60;24.13;;;9.90;59.90;;;;;;5038993;28;20221;-87
2024/03/17 11:25:27;;;;;;;25.27;22.70;;;10.30;56.30;;;;;;5038926;28;20184;-89
2024/03/17 11:28:03;;;;;;;26.93;24.30;;;10.50;54.20;;;;;;5056662;28;20210;-87
2024/03/17 11:33:30;;;;;;;50.73;46.87;;;10.20;53.70;;;;;;5056934;28;20198;-86
2024/03/17 11:36:23;;;;;;;52.60;48.63;;;9.90;53.60;;;;;;5056332;28;20180;-86
2024/03/17 11:39:06;;;;;;;52.00;48.23;;;9.70;54.40;;;;;;5056388;28;20597;-85
2024/03/17 11:41:34;;;;;;;51.30;47.40;;;9.60;56.10;;;;;;5056354;28;20184;-85
2024/03/17 11:44:18;;;;;;;51.53;47.33;;;9.50;57.60;;;;;;5056215;28;20168;-86
2024/03/17 11:46:45;;;;;;;48.73;44.20;;;9.50;57.50;;;;;;5056107;28;20245;-86
2024/03/17 11:49:20;;;;;;;50.00;45.83;;;9.50;58.60;;;;;;5056059;28;20294;-85
2024/03/17 11:51:46;;;;;;;55.77;51.30;;;9.70;56.60;;;;;;5056109;28;20190;-87
2024/03/17 11:54:29;;;;;;;56.37;51.90;;;9.90;58.40;;;;;;5038195;28;20675;-85
2024/03/17 11:57:00;;;;;;;54.80;50.70;;;10.00;60.00;;;;;;5056065;28;20160;-87
2024/03/17 11:59:26;;;;;;;54.03;49.73;;;10.10;58.20;;;;;;5056288;28;20214;-86
2024/03/17 12:01:51;;;;;;;55.83;51.37;;;10.20;56.90;;;;;;5056383;28;20196;-86
2024/03/17 12:04:20;;;;;;;52.83;48.53;;;10.30;58.00;;;;;;5056238;28;20176;-88
2024/03/17 12:06:52;;;;;;;54.67;50.43;;;10.90;53.20;;;;;;5037873;28;20271;-87
2024/03/17 12:09:28;;;;;;;44.40;40.70;;;11.00;52.90;;;;;;5055883;28;20214;-86
2024/03/17 12:12:35;;;;;;;44.83;40.63;;;11.00;52.70;;;;;;5037847;28;20226;-87
2024/03/17 12:15:16;;;;;;;46.47;42.20;;;11.00;53.80;;;;;;5037865;28;20176;-87
2024/03/17 12:17:42;;;;;;;46.30;42.57;;;11.20;52.80;;;;;;5038478;28;20251;-86
2024/03/17 12:20:17;;;;;;;33.13;30.10;;;10.70;56.60;;;;;;5038977;28;20705;-85
2024/03/17 12:22:43;;;;;;;35.07;32.03;;;10.70;60.10;;;;;;5037869;28;20605;-86
2024/03/17 12:25:20;;;;;;;34.27;31.17;;;10.90;58.10;;;;;;5056275;28;20186;-86
2024/03/17 12:27:48;;;;;;;35.07;31.93;;;11.20;55.60;;;;;;5055757;28;20156;-88
2024/03/17 12:30:14;;;;;;;33.47;30.60;;;11.40;53.20;;;;;;5055420;28;20222;-86
2024/03/17 12:32:41;;;;;;;35.00;31.83;;;11.10;54.80;;;;;;5055382;28;20215;-87
2024/03/17 12:35:14;;;;;;;34.47;31.70;;;11.50;57.80;;;;;;5037693;28;20183;-86
2024/03/17 12:37:40;;;;;;;34.97;31.63;;;11.70;51.60;;;;;;5055299;28;20175;-87
2024/03/17 12:40:18;;;;;;;33.67;30.83;;;11.60;56.10;;;;;;5055581;28;20698;-87
2024/03/17 12:42:48;;;;;;;34.57;31.23;;;11.60;55.90;;;;;;5037473;28;20223;-87